Time;durP1;ratioP1;P1;durP2;ratioP2;P2;SDS_P1;SDS_P2;PMS_P1;PMS_P2;Temp;Humidity;BMP_temperature;BMP_pressure;BME280_temperature;BME280_humidity;BME280_pressure;Samples;Min_cycle;Max_cycle;Signal;HPM_P1;HPM_P2
2021/03/03 00:02:17;;;;;;;;;;;;;;;;;;5025612;28;19952;-86
2021/03/03 00:04:44;;;;;;;;;;;;;;;;;;5023414;28;20441;-86
2021/03/03 00:07:11;;;;;;;;;;;;;;;;;;5025827;28;19988;-86
2021/03/03 00:09:38;;;;;;;;;;;;;;;;;;5024187;28;19968;-86
2021/03/03 00:12:05;;;;;;;;;;;;;;;;;;5024849;28;20341;-84
2021/03/03 00:14:33;;;;;;;;;;;;;;;;;;5029994;28;19961;-84
2021/03/03 00:17:00;;;;;;;;;;;;;;;;;;5033159;28;19929;-83
2021/03/03 00:19:27;;;;;;;;;;;;;;;;;;5028106;28;19932;-83
2021/03/03 00:21:54;;;;;;;;;;;;;;;;;;5028493;28;20005;-84
2021/03/03 00:24:22;;;;;;;;;;;;;;;;;;5027061;28;19968;-85
2021/03/03 00:26:49;;;;;;;;;;;;;;;;;;5025991;28;19925;-85
2021/03/03 00:29:16;;;;;;;;;;;;;;;;;;5026923;28;19975;-84
2021/03/03 00:31:43;;;;;;;;;;;;;;;;;;5027110;28;19980;-85
2021/03/03 00:34:10;;;;;;;;;;;;;;;;;;5028170;28;19933;-84
2021/03/03 00:36:38;;;;;;;;;;;;;;;;;;5025875;28;19929;-85
2021/03/03 00:39:05;;;;;;;;;;;;;;;;;;5020948;28;19952;-84
2021/03/03 00:41:32;;;;;;;;;;;;;;;;;;5016422;28;20012;-84
2021/03/03 00:43:59;;;;;;;;;;;;;;;;;;5022200;28;19965;-84
2021/03/03 00:46:26;;;;;;;;;;;;;;;;;;5016925;28;20052;-85
2021/03/03 00:48:53;;;;;;;;;;;;;;;;;;5015388;28;19987;-85
2021/03/03 00:51:20;;;;;;;;;;;;;;;;;;5015699;28;19964;-84
2021/03/03 00:53:48;;;;;;;;;;;;;;;;;;5016557;28;19925;-84
2021/03/03 00:56:15;;;;;;;;;;;;;;;;;;5015877;28;20028;-84
2021/03/03 00:58:42;;;;;;;;;;;;;;;;;;5014402;28;19980;-85
2021/03/03 01:01:09;;;;;;;;;;;;;;;;;;5014884;28;19977;-84
2021/03/03 01:03:36;;;;;;;;;;;;;;;;;;5014787;28;19940;-84
2021/03/03 01:06:04;;;;;;;;;;;;;;;;;;5016227;28;19968;-85
2021/03/03 01:08:31;;;;;;;;;;;;;;;;;;5014207;28;20016;-85
2021/03/03 01:10:58;;;;;;;;;;;;;;;;;;5015851;28;19930;-84
2021/03/03 01:13:25;;;;;;;;;;;;;;;;;;5015235;28;19925;-84
2021/03/03 01:15:52;;;;;;;;;;;;;;;;;;5022366;28;20242;-85
2021/03/03 01:18:19;;;;;;;;;;;;;;;;;;5023927;28;19973;-84
2021/03/03 01:20:46;;;;;;;;;;;;;;;;;;5014387;28;19926;-84
2021/03/03 01:23:15;;;;;;;;;;;;;;;;;;5014017;28;19929;-85
2021/03/03 01:25:42;;;;;;;;;;;;;;;;;;5014373;28;20020;-84
2021/03/03 01:28:09;;;;;;;;;;;;;;;;;;5013875;28;19952;-85
2021/03/03 01:30:53;;;;;;;;;;;;;;;;;;5014385;28;19925;-85
2021/03/03 01:33:20;;;;;;;;;;;;;;;;;;5014417;28;19956;-85
2021/03/03 01:35:48;;;;;;;;;;;;;;;;;;5014795;28;20285;-85
2021/03/03 01:38:15;;;;;;;;;;;;;;;;;;5013414;28;19932;-85
2021/03/03 01:40:42;;;;;;;;;;;;;;;;;;5014462;28;20347;-85
2021/03/03 01:43:10;;;;;;;;;;;;;;;;;;5015868;28;19968;-85
2021/03/03 01:45:37;;;;;;;;;;;;;;;;;;5017388;28;19952;-85
2021/03/03 01:48:05;;;;;;;;;;;;;;;;;;5029283;28;19931;-85
2021/03/03 01:50:32;;;;;;;;;;;;;;;;;;5017818;28;20071;-85
2021/03/03 01:52:59;;;;;;;;;;;;;;;;;;5023477;28;19952;-85
2021/03/03 01:55:26;;;;;;;;;;;;;;;;;;5029413;28;19952;-85
2021/03/03 01:57:53;;;;;;;;;;;;;;;;;;5029943;28;19926;-85
2021/03/03 02:00:27;;;;;;;;;;;;;;;;;;5017811;28;19930;-86
2021/03/03 07:45:34;;;;;;;;;;;;;;;;;;4979582;28;19973;-65
2021/03/03 07:48:02;;;;;;;;;;;;;;;;;;4984290;28;19956;-64
2021/03/03 07:50:29;;;;;;;;;;;;;;;;;;4990797;28;20339;-64
2021/03/03 07:52:56;;;;;;;;;;;;;;;;;;4977663;28;20052;-65
2021/03/03 07:55:29;;;;;;;;;;;;;;;;;;4981382;28;19926;-64
2021/03/03 07:57:57;;;;;;;;;;;;;;;;;;4988818;28;20392;-65
2021/03/03 08:00:25;;;;;;;;;;;;;;;;;;4986441;28;19958;-65
2021/03/03 08:02:52;;;;;;;;;;;;;;;;;;4986377;28;19926;-65
2021/03/03 08:05:20;;;;;;;;;;;;;;;;;;4989780;28;20271;-65
2021/03/03 08:07:47;;;;;;;;;;;;;;;;;;4989610;28;19925;-65
2021/03/03 08:10:15;;;;;;;;;;;;;;;;;;4991710;28;19933;-65
2021/03/03 08:12:43;;;;;;;;;;;;;;;;;;4992852;28;20092;-65
2021/03/03 08:15:10;;;;;;;;;;;;;;;;;;4978648;28;19930;-65
2021/03/03 08:17:40;;;;;;;;;;;;;;;;;;4993662;28;19926;-65
2021/03/03 08:20:08;;;;;;;;;;;;;;;;;;4993054;28;19933;-65
2021/03/03 08:22:36;;;;;;;;;;;;;;;;;;4993672;28;19936;-65
2021/03/03 08:25:03;;;;;;;;;;;;;;;;;;4977809;28;19927;-65
2021/03/03 08:27:30;;;;;;;;;;;;;;;;;;4981952;28;19925;-65
2021/03/03 08:29:58;;;;;;;;;;;;;;;;;;4990135;28;19980;-65
2021/03/03 08:32:25;;;;;;;;;;;;;;;;;;4992388;28;20456;-65
2021/03/03 08:34:53;;;;;;;;;;;;;;;;;;4984901;28;19926;-65
2021/03/03 08:37:21;;;;;;;;;;;;;;;;;;4991423;28;19932;-66
2021/03/03 08:39:48;;;;;;;;;;;;;;;;;;4979949;28;19930;-66
2021/03/03 08:42:16;;;;;;;;;;;;;;;;;;4980389;28;20008;-65
2021/03/03 08:44:43;;;;;;;;;;;;;;;;;;4992587;28;19925;-65
2021/03/03 08:47:11;;;;;;;;;;;;;;;;;;4991007;28;20034;-65
2021/03/03 08:49:39;;;;;;;;;;;;;;;;;;4986996;28;19941;-66
2021/03/03 08:52:06;;;;;;;;;;;;;;;;;;4991489;28;19976;-65
2021/03/03 08:54:33;;;;;;;;;;;;;;;;;;4993093;28;20009;-65
2021/03/03 08:57:01;;;;;;;;;;;;;;;;;;4992667;28;19981;-65
2021/03/03 08:59:28;;;;;;;;;;;;;;;;;;4984774;28;19945;-66
2021/03/03 09:01:56;;;;;;;;;;;;;;;;;;4989803;28;20312;-66
2021/03/03 09:04:24;;;;;;;;;;;;;;;;;;4988431;28;19969;-65
2021/03/03 09:06:52;;;;;;;;;;;;;;;;;;4988384;28;20623;-65
2021/03/03 09:09:20;;;;;;;;;;;;;;;;;;4990604;28;19937;-65
2021/03/03 09:11:47;;;;;;;;;;;;;;;;;;4990615;28;19936;-65
2021/03/03 09:14:15;;;;;;;;;;;;;;;;;;4988449;28;20320;-66
2021/03/03 09:16:42;;;;;;;;;;;;;;;;;;4991898;28;19937;-66
2021/03/03 09:19:11;;;;;;;;;;;;;;;;;;4991774;28;19929;-66
2021/03/03 09:21:38;;;;;;;;;;;;;;;;;;4981873;28;19926;-66
2021/03/03 09:24:06;;;;;;;;;;;;;;;;;;4990854;28;19929;-66
2021/03/03 09:26:34;;;;;;;;;;;;;;;;;;4991585;28;20013;-66
2021/03/03 09:29:02;;;;;;;;;;;;;;;;;;4991419;28;19930;-65
2021/03/03 09:31:29;;;;;;;;;;;;;;;;;;4990734;28;19926;-66
2021/03/03 09:33:57;;;;;;;;;;;;;;;;;;4991832;28;19926;-66
2021/03/03 09:36:25;;;;;;;;;;;;;;;;;;4989821;28;20311;-66
2021/03/03 09:38:52;;;;;;;;;;;;;;;;;;4990395;28;19933;-66
2021/03/03 09:41:20;;;;;;;;;;;;;;;;;;4990323;28;19940;-66
2021/03/03 09:43:47;;;;;;;;;;;;;;;;;;4991099;28;20297;-66
2021/03/03 09:46:15;;;;;;;;;;;;;;;;;;4991997;28;19929;-66
2021/03/03 09:48:42;;;;;;;;;;;;;;;;;;4991619;28;19952;-66
2021/03/03 09:51:10;;;;;;;;;;;;;;;;;;4989612;28;20047;-66
2021/03/03 09:53:37;;;;;;;;;;;;;;;;;;4987430;28;19929;-66
2021/03/03 09:56:05;;;;;;;;;;;;;;;;;;4987476;28;19936;-66
2021/03/03 09:58:32;;;;;;;;;;;;;;;;;;4985197;28;19930;-66
2021/03/03 10:01:00;;;;;;;;;;;;;;;;;;4991146;28;19926;-66
2021/03/03 10:03:28;;;;;;;;;;;;;;;;;;4988766;28;19936;-66
2021/03/03 10:05:56;;;;;;;;;;;;;;;;;;4985051;28;19937;-67
2021/03/03 10:08:23;;;;;;;;;;;;;;;;;;4976385;28;20086;-66
2021/03/03 10:10:51;;;;;;;;;;;;;;;;;;4977717;28;19930;-66
2021/03/03 10:13:18;;;;;;;;;;;;;;;;;;4979479;28;19969;-66
2021/03/03 10:15:46;;;;;;;;;;;;;;;;;;4972802;28;20422;-66
2021/03/03 10:18:14;;;;;;;;;;;;;;;;;;4988005;28;20017;-66
2021/03/03 10:20:43;;;;;;;;;;;;;;;;;;4970866;28;19929;-66
2021/03/03 10:23:11;;;;;;;;;;;;;;;;;;4987846;28;19926;-66
2021/03/03 10:25:38;;;;;;;;;;;;;;;;;;4987523;28;19933;-67
2021/03/03 10:28:10;;;;;;;;;;;;;;;;;;4985562;28;19929;-66
2021/03/03 10:30:37;;;;;;;;;;;;;;;;;;4985468;28;19925;-66
2021/03/03 10:33:05;;;;;;;;;;;;;;;;;;4988800;28;19932;-66
2021/03/03 10:35:32;;;;;;;;;;;;;;;;;;4987394;28;19937;-66
2021/03/03 10:38:00;;;;;;;;;;;;;;;;;;4987844;28;20312;-66
2021/03/03 10:40:28;;;;;;;;;;;;;;;;;;4986283;28;19979;-67
2021/03/03 10:42:55;;;;;;;;;;;;;;;;;;4985193;28;19929;-66
2021/03/03 10:45:23;;;;;;;;;;;;;;;;;;4987012;28;19933;-66
2021/03/03 10:47:51;;;;;;;;;;;;;;;;;;4985971;28;20412;-66
2021/03/03 10:50:31;;;;;;;;;;;;;;;;;;4984585;28;19930;-66
2021/03/03 10:52:59;;;;;;;;;;;;;;;;;;4987175;28;20189;-67
2021/03/03 10:55:27;;;;;;;;;;;;;;;;;;4981847;28;19934;-67
2021/03/03 10:57:54;;;;;;;;;;;;;;;;;;4979981;28;20183;-66
2021/03/03 11:00:21;;;;;;;;;;;;;;;;;;4987319;28;19937;-67
2021/03/03 11:02:49;;;;;;;;;;;;;;;;;;4981452;28;20338;-67
2021/03/03 11:05:16;;;;;;;;;;;;;;;;;;4980297;28;19940;-67
2021/03/03 11:07:54;;;;;;;;;;;;;;;;;;4982733;28;19934;-67
2021/03/03 11:10:22;;;;;;;;;;;;;;;;;;5001078;28;19929;-64
2021/03/03 11:12:49;;;;;;;;;;;;;;;;;;4989934;28;19930;-64
2021/03/03 11:15:17;;;;;;;;;;;;;;;;;;4991329;28;19934;-64
2021/03/03 11:17:44;;;;;;;;;;;;;;;;;;4987354;28;19936;-65
2021/03/03 11:20:12;;;;;;;;;;;;;;;;;;4988702;28;19926;-64
2021/03/03 11:22:39;;;;;;;;;;;;;;;;;;4987564;28;19934;-64
2021/03/03 11:25:06;;;;;;;;;;;;;;;;;;4991353;28;19940;-64
2021/03/03 11:27:34;;;;;;;;;;;;;;;;;;4988237;28;19936;-64
2021/03/03 11:30:01;;;;;;;;;;;;;;;;;;4979281;28;19934;-65
2021/03/03 11:32:29;;;;;;;;;;;;;;;;;;4988671;28;20016;-64
2021/03/03 11:34:56;;;;;;;;;;;;;;;;;;4992051;28;19933;-65
2021/03/03 11:37:23;;;;;;;;;;;;;;;;;;4984199;28;19934;-64
2021/03/03 11:39:53;;;;;;;;;;;;;;;;;;4990230;28;19945;-65
2021/03/03 11:42:21;;;;;;;;;;;;;;;;;;4985713;28;20250;-65
2021/03/03 11:44:48;;;;;;;;;;;;;;;;;;4988042;28;19930;-65
2021/03/03 11:47:15;;;;;;;;;;;;;;;;;;4985243;28;19960;-65
2021/03/03 11:49:42;;;;;;;;;;;;;;;;;;4990247;28;19930;-66
2021/03/03 11:52:10;;;;;;;;;;;;;;;;;;4989002;28;20216;-65
2021/03/03 11:54:37;;;;;;;;;;;;;;;;;;4982696;28;20393;-65
2021/03/03 11:57:05;;;;;;;;;;;;;;;;;;4978374;28;20060;-65
2021/03/03 11:59:32;;;;;;;;;;;;;;;;;;4989818;28;19957;-66
2021/03/03 12:02:03;;;;;;;;;;;;;;;;;;4987805;28;19940;-66
2021/03/03 12:04:31;;;;;;;;;;;;;;;;;;4988243;28;19933;-65
2021/03/03 12:06:58;;;;;;;;;;;;;;;;;;4979078;28;20400;-65
2021/03/03 12:09:26;;;;;;;;;;;;;;;;;;4990049;28;19973;-65
2021/03/03 12:11:53;;;;;;;;;;;;;;;;;;4990931;28;19934;-66
2021/03/03 12:14:20;;;;;;;;;;;;;;;;;;4986361;28;20617;-66
2021/03/03 12:16:48;;;;;;;;;;;;;;;;;;4984494;28;20008;-65
2021/03/03 12:19:15;;;;;;;;;;;;;;;;;;4979982;28;19937;-66
2021/03/03 12:21:43;;;;;;;;;;;;;;;;;;4988938;28;20436;-66
2021/03/03 12:24:10;;;;;;;;;;;;;;;;;;4987417;28;19929;-66
2021/03/03 12:26:38;;;;;;;;;;;;;;;;;;4988891;28;19998;-66
2021/03/03 12:29:05;;;;;;;;;;;;;;;;;;4988614;28;19940;-66
2021/03/03 12:31:32;;;;;;;;;;;;;;;;;;4988187;28;19929;-66
2021/03/03 12:34:00;;;;;;;;;;;;;;;;;;4981379;28;19929;-66
2021/03/03 12:36:28;;;;;;;;;;;;;;;;;;4988477;28;20245;-66
2021/03/03 12:39:01;;;;;;;;;;;;;;;;;;4988549;28;19929;-65
2021/03/03 12:41:29;;;;;;;;;;;;;;;;;;4989588;28;19930;-66
2021/03/03 12:43:56;;;;;;;;;;;;;;;;;;4989235;28;20132;-66
2021/03/03 12:46:24;;;;;;;;;;;;;;;;;;4987809;28;20025;-66
2021/03/03 12:48:51;;;;;;;;;;;;;;;;;;4985970;28;20012;-66
2021/03/03 12:51:18;;;;;;;;;;;;;;;;;;4987134;28;19929;-66
2021/03/03 12:53:46;;;;;;;;;;;;;;;;;;4986013;28;20021;-66
2021/03/03 12:56:13;;;;;;;;;;;;;;;;;;4981553;28;19934;-66
2021/03/03 12:58:40;;;;;;;;;;;;;;;;;;4986938;28;19984;-65
2021/03/03 13:01:08;;;;;;;;;;;;;;;;;;4989080;28;19929;-66
2021/03/03 13:03:35;;;;;;;;;;;;;;;;;;4985580;28;19952;-66
2021/03/03 13:06:02;;;;;;;;;;;;;;;;;;4982531;28;20362;-66
2021/03/03 13:08:31;;;;;;;;;;;;;;;;;;4986553;28;19937;-66
2021/03/03 13:10:59;;;;;;;;;;;;;;;;;;4988908;28;19933;-66
2021/03/03 13:13:26;;;;;;;;;;;;;;;;;;4988077;28;19929;-66
2021/03/03 13:15:54;;;;;;;;;;;;;;;;;;4988485;28;19926;-66
2021/03/03 13:18:24;;;;;;;;;;;;;;;;;;4987547;28;20377;-65
2021/03/03 13:20:51;;;;;;;;;;;;;;;;;;4987347;28;19930;-66
2021/03/03 13:23:19;;;;;;;;;;;;;;;;;;4987626;28;20015;-66
2021/03/03 13:25:46;;;;;;;;;;;;;;;;;;4987549;28;19929;-66
2021/03/03 13:28:14;;;;;;;;;;;;;;;;;;4984973;28;20052;-66
2021/03/03 13:30:41;;;;;;;;;;;;;;;;;;4985895;28;19930;-66
2021/03/03 13:33:09;;;;;;;;;;;;;;;;;;4988870;28;20217;-66
2021/03/03 13:35:37;;;;;;;;;;;;;;;;;;4988596;28;19957;-66
2021/03/03 13:38:04;;;;;;;;;;;;;;;;;;4982203;28;20036;-66
2021/03/03 13:40:32;;;;;;;;;;;;;;;;;;4988564;28;20385;-66
2021/03/03 13:43:00;;;;;;;;;;;;;;;;;;4991801;28;19929;-66
2021/03/03 13:45:27;;;;;;;;;;;;;;;;;;4988221;28;19929;-66
2021/03/03 13:47:54;;;;;;;;;;;;;;;;;;4991274;28;19937;-66
2021/03/03 13:50:22;;;;;;;;;;;;;;;;;;4992145;28;19926;-66
2021/03/03 13:52:49;;;;;;;;;;;;;;;;;;4990978;28;19926;-66
2021/03/03 13:55:16;;;;;;;;;;;;;;;;;;4981818;28;20377;-66
2021/03/03 13:57:43;;;;;;;;;;;;;;;;;;4985825;28;20276;-65
2021/03/03 14:00:11;;;;;;;;;;;;;;;;;;4988463;28;19998;-66
2021/03/03 14:02:39;;;;;;;;;;;;;;;;;;4989553;28;19926;-66
2021/03/03 14:05:06;;;;;;;;;;;;;;;;;;4993910;28;20037;-66
2021/03/03 14:07:33;;;;;;;;;;;;;;;;;;4979461;28;19933;-66
2021/03/03 14:10:06;;;;;;;;;;;;;;;;;;5019299;28;19953;-66
2021/03/03 14:12:34;;;;;;;;;;;;;;;;;;4990673;28;19929;-65
2021/03/03 14:15:02;;;;;;;;;;;;;;;;;;4982489;28;19968;-66
2021/03/03 14:17:29;;;;;;;;;;;;;;;;;;4990792;28;19929;-66
2021/03/03 14:19:56;;;;;;;;;;;;;;;;;;4988878;28;20399;-66
2021/03/03 14:22:25;;;;;;;;;;;;;;;;;;4989682;28;19934;-66
2021/03/03 14:24:52;;;;;;;;;;;;;;;;;;4984130;28;20005;-66
2021/03/03 14:27:20;;;;;;;;;;;;;;;;;;4989751;28;19956;-66
2021/03/03 14:29:47;;;;;;;;;;;;;;;;;;4984551;28;19936;-66
2021/03/03 14:32:15;;;;;;;;;;;;;;;;;;4990872;28;20321;-66
2021/03/03 14:34:42;;;;;;;;;;;;;;;;;;4985932;28;19933;-66
2021/03/03 14:37:10;;;;;;;;;;;;;;;;;;4989229;28;20388;-66
2021/03/03 14:39:37;;;;;;;;;;;;;;;;;;4990035;28;19976;-65
2021/03/03 14:42:04;;;;;;;;;;;;;;;;;;4988724;28;20973;-66
2021/03/03 14:44:32;;;;;;;;;;;;;;;;;;4984324;28;19933;-66
2021/03/03 14:47:00;;;;;;;;;;;;;;;;;;4989693;28;20071;-66
2021/03/03 14:49:27;;;;;;;;;;;;;;;;;;4993100;28;19933;-66
2021/03/03 14:51:55;;;;;;;;;;;;;;;;;;4995396;28;20012;-66
2021/03/03 14:54:22;;;;;;;;;;;;;;;;;;4984691;28;19986;-65
2021/03/03 14:56:49;;;;;;;;;;;;;;;;;;4995440;28;19981;-65
2021/03/03 14:59:17;;;;;;;;;;;;;;;;;;4993829;28;20031;-66
2021/03/03 15:01:45;;;;;;;;;;;;;;;;;;4992712;28;19937;-65
2021/03/03 15:04:12;;;;;;;;;;;;;;;;;;4985293;28;19930;-65
2021/03/03 15:06:39;;;;;;;;;;;;;;;;;;4994689;28;19925;-65
2021/03/03 15:09:07;;;;;;;;;;;;;;;;;;4994489;28;20024;-65
2021/03/03 15:11:36;;;;;;;;;;;;;;;;;;4994427;28;19930;-65
2021/03/03 15:14:03;;;;;;;;;;;;;;;;;;4991533;28;19996;-65
2021/03/03 15:16:30;;;;;;;;;;;;;;;;;;4993394;28;20436;-66
2021/03/03 15:18:58;;;;;;;;;;;;;;;;;;4993523;28;19934;-66
2021/03/03 15:21:25;;;;;;;;;;;;;;;;;;4993338;28;19933;-65
2021/03/03 15:23:52;;;;;;;;;;;;;;;;;;4991980;28;20028;-65
2021/03/03 15:26:19;;;;;;;;;;;;;;;;;;4984930;28;20012;-65
2021/03/03 15:28:47;;;;;;;;;;;;;;;;;;4987887;28;20028;-65
2021/03/03 15:31:14;;;;;;;;;;;;;;;;;;4993974;28;19929;-66
2021/03/03 15:33:41;;;;;;;;;;;;;;;;;;4987226;28;19929;-65
2021/03/03 15:36:09;;;;;;;;;;;;;;;;;;4986645;28;19929;-65
2021/03/03 15:38:36;;;;;;;;;;;;;;;;;;4993516;28;19926;-67
2021/03/03 15:41:14;;;;;;;;;;;;;;;;;;4994000;28;19938;-67
2021/03/03 15:43:41;;;;;;;;;;;;;;;;;;4992120;28;20369;-66
2021/03/03 15:46:08;;;;;;;;;;;;;;;;;;4993021;28;19933;-67
2021/03/03 15:48:36;;;;;;;;;;;;;;;;;;5002417;28;19926;-67
2021/03/03 15:51:03;;;;;;;;;;;;;;;;;;4992545;28;19962;-67
2021/03/03 15:53:31;;;;;;;;;;;;;;;;;;4991503;28;19925;-67
2021/03/03 15:55:59;;;;;;;;;;;;;;;;;;4994188;28;19926;-67
2021/03/03 15:58:27;;;;;;;;;;;;;;;;;;4990697;28;19933;-67
2021/03/03 16:00:56;;;;;;;;;;;;;;;;;;4993858;28;20396;-67
2021/03/03 16:03:25;;;;;;;;;;;;;;;;;;4993262;28;20020;-66
2021/03/03 16:05:52;;;;;;;;;;;;;;;;;;4994130;28;19933;-66
2021/03/03 16:08:20;;;;;;;;;;;;;;;;;;4993492;28;20286;-66
2021/03/03 16:10:47;;;;;;;;;;;;;;;;;;4992251;28;19976;-67
2021/03/03 16:13:15;;;;;;;;;;;;;;;;;;4986731;28;20044;-66
2021/03/03 16:15:42;;;;;;;;;;;;;;;;;;4992107;28;20032;-66
2021/03/03 16:18:10;;;;;;;;;;;;;;;;;;4994394;28;19926;-67
2021/03/03 16:20:38;;;;;;;;;;;;;;;;;;4993386;28;19933;-67
2021/03/03 16:23:05;;;;;;;;;;;;;;;;;;4993807;28;19960;-66
2021/03/03 16:25:33;;;;;;;;;;;;;;;;;;4991566;28;19930;-66
2021/03/03 16:28:00;;;;;;;;;;;;;;;;;;4986746;28;19934;-66
2021/03/03 16:30:27;;;;;;;;;;;;;;;;;;4992492;28;19933;-66
2021/03/03 16:32:55;;;;;;;;;;;;;;;;;;4993045;28;19926;-67
2021/03/03 16:35:22;;;;;;;;;;;;;;;;;;4994002;28;19934;-66
2021/03/03 16:37:50;;;;;;;;;;;;;;;;;;4982287;28;20012;-66
2021/03/03 16:40:18;;;;;;;;;;;;;;;;;;4994426;28;20024;-66
2021/03/03 16:43:01;;;;;;;;;;;;;;;;;;4993240;28;19925;-66
2021/03/03 16:45:28;;;;;;;;;;;;;;;;;;4992434;28;19926;-66
2021/03/03 16:47:56;;;;;;;;;;;;;;;;;;4983694;28;19932;-66
2021/03/03 16:50:23;;;;;;;;;;;;;;;;;;4993206;28;19933;-66
2021/03/03 16:52:51;;;;;;;;;;;;;;;;;;4987145;28;19930;-66
2021/03/03 16:55:18;;;;;;;;;;;;;;;;;;4988822;28;19973;-66
2021/03/03 16:57:45;;;;;;;;;;;;;;;;;;4990834;28;19932;-66
2021/03/03 17:00:13;;;;;;;;;;;;;;;;;;4992290;28;19929;-66
2021/03/03 17:02:40;;;;;;;;;;;;;;;;;;4988930;28;20004;-66
2021/03/03 17:05:07;;;;;;;;;;;;;;;;;;4992919;28;20332;-66
2021/03/03 17:07:35;;;;;;;;;;;;;;;;;;4989704;28;19926;-66
2021/03/03 17:10:02;;;;;;;;;;;;;;;;;;4987695;28;20028;-66
2021/03/03 17:12:29;;;;;;;;;;;;;;;;;;4988250;28;20163;-66
2021/03/03 17:14:56;;;;;;;;;;;;;;;;;;4990078;28;20060;-66
2021/03/03 17:17:24;;;;;;;;;;;;;;;;;;4989761;28;20020;-66
2021/03/03 17:19:52;;;;;;;;;;;;;;;;;;4975602;28;20341;-66
2021/03/03 17:22:19;;;;;;;;;;;;;;;;;;4973448;28;19937;-66
2021/03/03 17:24:46;;;;;;;;;;;;;;;;;;4999095;28;19926;-66
2021/03/03 17:27:14;;;;;;;;;;;;;;;;;;4973741;28;20000;-66
2021/03/03 17:29:41;;;;;;;;;;;;;;;;;;4975063;28;19929;-66
2021/03/03 17:32:09;;;;;;;;;;;;;;;;;;4981817;28;19981;-66
2021/03/03 17:34:37;;;;;;;;;;;;;;;;;;4987074;28;20265;-66
2021/03/03 17:37:04;;;;;;;;;;;;;;;;;;4975933;28;19930;-66
2021/03/03 17:39:32;;;;;;;;;;;;;;;;;;4989260;28;20031;-66
2021/03/03 17:42:00;;;;;;;;;;;;;;;;;;4987783;28;19929;-66
2021/03/03 17:44:27;;;;;;;;;;;;;;;;;;4999351;28;20463;-66
2021/03/03 17:46:54;;;;;;;;;;;;;;;;;;4970946;28;19934;-67
2021/03/03 17:49:22;;;;;;;;;;;;;;;;;;4970661;28;19930;-67
2021/03/03 17:51:49;;;;;;;;;;;;;;;;;;4969345;28;20410;-65
2021/03/03 17:54:17;;;;;;;;;;;;;;;;;;4981760;28;20440;-65
2021/03/03 17:56:44;;;;;;;;;;;;;;;;;;4988275;28;20480;-64
2021/03/03 17:59:12;;;;;;;;;;;;;;;;;;4981479;28;19934;-66
2021/03/03 18:01:39;;;;;;;;;;;;;;;;;;4986343;28;19936;-66
2021/03/03 18:04:07;;;;;;;;;;;;;;;;;;4972411;28;20015;-66
2021/03/03 18:06:34;;;;;;;;;;;;;;;;;;4976798;28;20013;-66
2021/03/03 18:09:02;;;;;;;;;;;;;;;;;;4983954;28;19930;-66
2021/03/03 18:11:30;;;;;;;;;;;;;;;;;;4970041;28;20297;-67
2021/03/03 18:13:58;;;;;;;;;;;;;;;;;;4985100;28;20360;-67
2021/03/03 18:16:25;;;;;;;;;;;;;;;;;;4976480;28;19936;-67
2021/03/03 18:18:52;;;;;;;;;;;;;;;;;;4976058;28;19981;-67
2021/03/03 18:21:19;;;;;;;;;;;;;;;;;;4985951;28;20013;-67
2021/03/03 18:23:47;;;;;;;;;;;;;;;;;;4979589;28;19930;-67
2021/03/03 18:26:14;;;;;;;;;;;;;;;;;;4983764;28;19930;-67
2021/03/03 18:28:42;;;;;;;;;;;;;;;;;;4988416;28;20826;-67
2021/03/03 18:31:09;;;;;;;;;;;;;;;;;;4988356;28;19976;-67
2021/03/03 18:33:37;;;;;;;;;;;;;;;;;;4978061;28;19961;-67
2021/03/03 18:36:06;;;;;;;;;;;;;;;;;;4975690;28;19929;-67
2021/03/03 18:38:33;;;;;;;;;;;;;;;;;;4983735;28;20406;-67
2021/03/03 18:41:00;;;;;;;;;;;;;;;;;;4988762;28;19972;-67
2021/03/03 18:43:36;;;;;;;;;;;;;;;;;;4986919;28;19937;-67
2021/03/03 18:46:05;;;;;;;;;;;;;;;;;;4990026;28;20016;-67
2021/03/03 18:48:32;;;;;;;;;;;;;;;;;;4982991;28;19961;-67
2021/03/03 18:50:59;;;;;;;;;;;;;;;;;;4969856;28;19941;-68
2021/03/03 18:53:26;;;;;;;;;;;;;;;;;;4987567;28;19929;-68
2021/03/03 18:55:53;;;;;;;;;;;;;;;;;;4987912;28;20300;-68
2021/03/03 18:58:21;;;;;;;;;;;;;;;;;;4984568;28;19926;-68
2021/03/03 19:00:48;;;;;;;;;;;;;;;;;;4970022;28;19934;-68
2021/03/03 19:03:16;;;;;;;;;;;;;;;;;;4980417;28;20376;-68
2021/03/03 19:05:43;;;;;;;;;;;;;;;;;;4989293;28;19933;-68
2021/03/03 19:08:11;;;;;;;;;;;;;;;;;;4987903;28;19926;-68
2021/03/03 19:10:38;;;;;;;;;;;;;;;;;;4985474;28;19933;-68
2021/03/03 19:13:06;;;;;;;;;;;;;;;;;;4986150;28;20012;-68
2021/03/03 19:15:33;;;;;;;;;;;;;;;;;;4988255;28;20436;-68
2021/03/03 19:18:00;;;;;;;;;;;;;;;;;;4986994;28;19962;-68
2021/03/03 19:20:28;;;;;;;;;;;;;;;;;;4986324;28;19926;-68
2021/03/03 19:22:56;;;;;;;;;;;;;;;;;;4982907;28;19949;-67
2021/03/03 19:25:24;;;;;;;;;;;;;;;;;;4986683;28;19956;-66
2021/03/03 19:27:51;;;;;;;;;;;;;;;;;;4981504;28;20352;-66
2021/03/03 19:30:18;;;;;;;;;;;;;;;;;;4984512;28;20339;-66
2021/03/03 19:32:45;;;;;;;;;;;;;;;;;;4989588;28;20031;-66
2021/03/03 19:35:13;;;;;;;;;;;;;;;;;;4989648;28;19937;-66
2021/03/03 19:37:40;;;;;;;;;;;;;;;;;;4989774;28;19933;-66
2021/03/03 19:40:07;;;;;;;;;;;;;;;;;;4990343;28;20298;-66
2021/03/03 19:42:35;;;;;;;;;;;;;;;;;;4990818;28;19969;-66
2021/03/03 19:45:03;;;;;;;;;;;;;;;;;;4991609;28;19936;-66
2021/03/03 19:47:30;;;;;;;;;;;;;;;;;;4992330;28;20045;-66
2021/03/03 19:49:57;;;;;;;;;;;;;;;;;;4988736;28;19941;-66
2021/03/03 19:52:24;;;;;;;;;;;;;;;;;;4990005;28;19936;-66
2021/03/03 19:54:52;;;;;;;;;;;;;;;;;;4988974;28;19969;-66
2021/03/03 19:57:19;;;;;;;;;;;;;;;;;;4991655;28;19934;-66
2021/03/03 19:59:46;;;;;;;;;;;;;;;;;;4987826;28;19965;-66
2021/03/03 20:02:13;;;;;;;;;;;;;;;;;;4989270;28;20025;-68
2021/03/03 20:04:41;;;;;;;;;;;;;;;;;;4986414;28;20031;-66
2021/03/03 20:07:08;;;;;;;;;;;;;;;;;;4991341;28;19930;-67
2021/03/03 20:09:35;;;;;;;;;;;;;;;;;;4984776;28;20057;-66
2021/03/03 20:12:02;;;;;;;;;;;;;;;;;;4991125;28;20052;-67
2021/03/03 20:14:44;;;;;;;;;;;;;;;;;;4990447;28;19936;-67
2021/03/03 20:17:11;;;;;;;;;;;;;;;;;;4990873;28;20284;-67
2021/03/03 20:19:39;;;;;;;;;;;;;;;;;;4976793;28;19941;-66
2021/03/03 20:22:11;;;;;;;;;;;;;;;;;;4990696;28;20013;-66
2021/03/03 20:24:38;;;;;;;;;;;;;;;;;;4989886;28;19960;-67
2021/03/03 20:27:05;;;;;;;;;;;;;;;;;;4988122;28;20407;-67
2021/03/03 20:29:33;;;;;;;;;;;;;;;;;;4988214;28;19980;-67
2021/03/03 20:32:01;;;;;;;;;;;;;;;;;;4990338;28;19934;-67
2021/03/03 20:34:28;;;;;;;;;;;;;;;;;;4989465;28;19934;-67
2021/03/03 20:36:55;;;;;;;;;;;;;;;;;;4982524;28;19926;-67
2021/03/03 20:39:23;;;;;;;;;;;;;;;;;;4986359;28;19930;-67
2021/03/03 20:41:50;;;;;;;;;;;;;;;;;;4990049;28;19933;-67
2021/03/03 20:44:17;;;;;;;;;;;;;;;;;;4988744;28;19929;-67
2021/03/03 20:46:44;;;;;;;;;;;;;;;;;;4983571;28;19945;-66
2021/03/03 20:49:12;;;;;;;;;;;;;;;;;;4986188;28;20388;-67
2021/03/03 20:51:39;;;;;;;;;;;;;;;;;;4989317;28;19981;-67
2021/03/03 20:54:06;;;;;;;;;;;;;;;;;;4988140;28;19930;-67
2021/03/03 20:56:33;;;;;;;;;;;;;;;;;;4987378;28;20013;-67
2021/03/03 20:59:00;;;;;;;;;;;;;;;;;;4970709;28;20386;-66
2021/03/03 21:01:28;;;;;;;;;;;;;;;;;;4988550;28;19949;-68
2021/03/03 21:03:55;;;;;;;;;;;;;;;;;;4990231;28;19937;-66
2021/03/03 21:06:22;;;;;;;;;;;;;;;;;;4988588;28;20366;-66
2021/03/03 21:08:49;;;;;;;;;;;;;;;;;;4989634;28;20001;-66
2021/03/03 21:11:17;;;;;;;;;;;;;;;;;;4984949;28;19957;-66
2021/03/03 21:13:44;;;;;;;;;;;;;;;;;;4989856;28;19936;-66
2021/03/03 21:16:12;;;;;;;;;;;;;;;;;;4989076;28;20040;-66
2021/03/03 21:18:39;;;;;;;;;;;;;;;;;;4988499;28;19997;-66
2021/03/03 21:21:06;;;;;;;;;;;;;;;;;;4988973;28;19959;-67
2021/03/03 21:23:33;;;;;;;;;;;;;;;;;;4987325;28;19934;-67
2021/03/03 21:26:02;;;;;;;;;;;;;;;;;;4988761;28;20053;-67
2021/03/03 21:28:30;;;;;;;;;;;;;;;;;;4987503;28;20242;-67
2021/03/03 21:30:57;;;;;;;;;;;;;;;;;;4988090;28;20441;-67
2021/03/03 21:33:24;;;;;;;;;;;;;;;;;;4990331;28;19934;-67
2021/03/03 21:35:52;;;;;;;;;;;;;;;;;;4991118;28;19933;-67
2021/03/03 21:38:19;;;;;;;;;;;;;;;;;;4988357;28;19934;-67
2021/03/03 21:40:54;;;;;;;;;;;;;;;;;;4992068;28;19930;-67
2021/03/03 21:43:22;;;;;;;;;;;;;;;;;;4992533;28;20380;-67
2021/03/03 21:45:50;;;;;;;;;;;;;;;;;;4992061;28;19991;-67
2021/03/03 21:48:17;;;;;;;;;;;;;;;;;;4991524;28;20337;-67
2021/03/03 21:50:44;;;;;;;;;;;;;;;;;;4986097;28;19954;-67
2021/03/03 21:53:11;;;;;;;;;;;;;;;;;;4983345;28;19926;-67
2021/03/03 21:55:38;;;;;;;;;;;;;;;;;;4984809;28;20017;-67
2021/03/03 21:58:05;;;;;;;;;;;;;;;;;;4992290;28;20236;-67
2021/03/03 22:00:33;;;;;;;;;;;;;;;;;;4989671;28;19934;-67
2021/03/03 22:03:00;;;;;;;;;;;;;;;;;;4984931;28;19997;-66
2021/03/03 22:05:28;;;;;;;;;;;;;;;;;;4990838;28;19961;-67
2021/03/03 22:07:55;;;;;;;;;;;;;;;;;;4987453;28;19980;-67
2021/03/03 22:10:22;;;;;;;;;;;;;;;;;;4989714;28;20405;-67
2021/03/03 22:12:49;;;;;;;;;;;;;;;;;;4992073;28;19934;-67
2021/03/03 22:15:16;;;;;;;;;;;;;;;;;;4992299;28;19929;-67
2021/03/03 22:17:44;;;;;;;;;;;;;;;;;;4976448;28;20099;-67
2021/03/03 22:20:11;;;;;;;;;;;;;;;;;;4990026;28;19965;-67
2021/03/03 22:22:38;;;;;;;;;;;;;;;;;;4991936;28;20376;-67
2021/03/03 22:25:05;;;;;;;;;;;;;;;;;;4991278;28;19961;-67
2021/03/03 22:27:32;;;;;;;;;;;;;;;;;;4982245;28;20017;-67
2021/03/03 22:30:00;;;;;;;;;;;;;;;;;;4991040;28;20402;-67
2021/03/03 22:32:27;;;;;;;;;;;;;;;;;;4992270;28;19961;-67